Bei Facebook empfehlenBei Twitter postenGoogle plusPinterest

Das Wetter im Erzgebirge am 12.10.2016

Wetter und Klima am 12.10.2016 Holzhau im Erzgebirge (630m ü.NN)
Letzte gemessene Temperatur und Uhrzeit der Messung23:45:00 Uhr3.90 °C
Temperatur (Maximum / Höchstwert) und Uhrzeit der Messung13:30:00 Uhr6.10 °C
Temperatur (Minimum / Tiefstwert) und Uhrzeit der Messung08:30:002.90 °C
Errechneter Absolutwert der Temperaturschwankungen zwischen Tmin und Tmax des Tages3.20 K
Errechnete Tagesmitteltemperatur3.92396 °C
Gesamt - Niederschlag des Tages (in flüssiger Form)1.04 Liter / m²
Luftdruck (Maximum / Höchstwert) und Zeitpunkt der Messung22:45:00 Uhr1015.40 hPa
Luftdruck (Minimum / Tiefstwert) und Zeitpunkt der Messung05:00:00 Uhr1013.20 hPa
Errechneter Absolutwert der Luftdruckschwankungen des Tages2.20 hPa
Höchste gemessene Windgeschwindigkeit und Uhrzeit der Messung23:45:00 Uhr0.00 km/h
Errechnete Windhäufigkeit in Relation zu den Messwerten des Tages0.00000 %
Niedrigste Windkühle (Windchill) und Zeitpunkt der Messung08:30:00 Uhr2.90 °C
Taupunkt (Maximum / Höchstwert) und Uhrzeit der Messung13:30:00 Uhr5.40 °C
Taupunkt (Minimum / Tiefstwert) und Uhrzeit der Messung08:00:002.00 °C
Anzahl der automatisch eingelesenen Messwerte 96

Detaillierte Wetter- und Klima- Messwerte für den 12.10.2016 in Holzhau im Erzgebirge (630m ü.NN)
ZeitTemperaturLuftdruckRel. LuftfeuchteWindWindrichtungWindchillTaupunktNiederschlag l/m²
23:45:003.90 °C1015.30 hPa95.00 %3.20 °C1.04
23:30:003.90 °C1015.20 hPa95.00 %3.20 °C1.04
23:15:003.90 °C1015.20 hPa95.00 %3.20 °C1.04
23:00:003.90 °C1015.20 hPa95.00 %3.20 °C1.04
22:45:003.90 °C1015.40 hPa95.00 %3.20 °C1.04
22:30:003.80 °C1015.30 hPa95.00 %3.10 °C1.04
22:15:003.90 °C1015.40 hPa95.00 %3.20 °C1.04
22:00:003.80 °C1015.40 hPa95.00 %3.10 °C1.04
21:45:003.90 °C1015.30 hPa95.00 %3.20 °C1.04
21:30:003.90 °C1015.30 hPa95.00 %3.20 °C1.04
21:15:003.90 °C1015.20 hPa95.00 %3.20 °C0.52
21:00:003.90 °C1015.10 hPa95.00 %3.20 °C0.52
20:45:003.90 °C1015.20 hPa95.00 %3.20 °C0.52
20:30:003.80 °C1015.00 hPa95.00 %3.10 °C0.52
20:15:003.80 °C1015.10 hPa94.00 %2.90 °C0.52
20:00:003.80 °C1015.20 hPa94.00 %2.90 °C0.52
19:45:003.80 °C1015.10 hPa94.00 %2.90 °C0.52
19:30:003.80 °C1015.20 hPa94.00 %2.90 °C0.52
19:15:003.80 °C1015.10 hPa94.00 %2.90 °C0.52
19:00:003.80 °C1015.10 hPa94.00 %2.90 °C0.52
18:45:003.80 °C1014.90 hPa94.00 %2.90 °C0.52
18:30:003.90 °C1014.80 hPa94.00 %3.00 °C0.52
18:15:003.90 °C1014.80 hPa94.00 %3.00 °C0.52
18:00:004.00 °C1014.40 hPa94.00 %3.10 °C0.52
17:45:003.90 °C1014.70 hPa94.00 %3.00 °C0.52
17:30:004.10 °C1014.60 hPa94.00 %3.20 °C0.52
17:15:004.20 °C1014.80 hPa94.00 %3.30 °C0.52
17:00:004.30 °C1015.00 hPa94.00 %3.40 °C0.52
16:45:004.20 °C1015.00 hPa94.00 %3.30 °C0.52
16:30:004.10 °C1014.90 hPa94.00 %3.20 °C0.52
16:15:004.20 °C1015.10 hPa94.00 %3.30 °C0.52
16:00:004.20 °C1015.20 hPa94.00 %3.30 °C0.52
15:45:004.40 °C1015.40 hPa94.00 %3.50 °C0.52
15:30:004.40 °C1015.40 hPa94.00 %3.50 °C0.52
15:15:004.60 °C1015.20 hPa94.00 %3.70 °C0.52
15:00:004.90 °C1015.40 hPa94.00 %4.00 °C0.52
14:45:005.10 °C1015.40 hPa94.00 %4.20 °C0.52
14:30:005.10 °C1015.30 hPa94.00 %4.20 °C0.52
14:15:005.30 °C1015.20 hPa95.00 %4.60 °C0.52
14:00:005.60 °C1015.20 hPa95.00 %4.90 °C0.52
13:45:005.90 °C1015.00 hPa95.00 %5.20 °C0.52
13:30:006.10 °C1014.90 hPa95.00 %5.40 °C0.52
13:15:005.60 °C1014.90 hPa95.00 %4.90 °C0.52
13:00:005.30 °C1014.90 hPa95.00 %4.60 °C0.52
12:45:004.60 °C1015.00 hPa95.00 %3.90 °C0.52
12:30:004.80 °C1014.80 hPa95.00 %4.10 °C0.52
12:15:004.80 °C1014.90 hPa95.00 %4.10 °C0.52
12:00:004.60 °C1014.70 hPa95.00 %3.90 °C0.52
11:45:004.40 °C1014.80 hPa95.00 %3.70 °C0.52
11:30:004.40 °C1014.70 hPa95.00 %3.70 °C0.52
11:15:004.40 °C1014.70 hPa95.00 %3.70 °C0.52
11:00:004.40 °C1014.50 hPa96.00 %3.80 °C0.52
10:45:004.20 °C1014.40 hPa95.00 %3.50 °C0.52
10:30:004.10 °C1014.40 hPa95.00 %3.40 °C0.52
10:15:003.80 °C1014.30 hPa95.00 %3.10 °C0.52
10:00:003.50 °C1014.10 hPa95.00 %2.80 °C0.52
09:45:003.50 °C1014.10 hPa95.00 %2.80 °C0.52
09:30:003.40 °C1014.00 hPa95.00 %2.70 °C0.52
09:15:003.10 °C1014.00 hPa95.00 %2.40 °C0.52
09:00:003.00 °C1014.10 hPa95.00 %2.30 °C0.52
08:45:003.00 °C1013.90 hPa95.00 %2.30 °C0.52
08:30:002.90 °C1013.80 hPa95.00 %2.20 °C0.52
08:15:002.90 °C1013.70 hPa95.00 %2.20 °C0.52
08:00:002.90 °C1013.80 hPa94.00 %2.00 °C0.52
07:45:002.90 °C1013.70 hPa94.00 %2.00 °C0.52
07:30:002.90 °C1013.80 hPa94.00 %2.00 °C0.52
07:15:002.90 °C1013.50 hPa94.00 %2.00 °C0.52
07:00:003.00 °C1013.60 hPa95.00 %2.30 °C0.52
06:45:003.00 °C1013.30 hPa95.00 %2.30 °C0.52
06:30:003.10 °C1013.30 hPa95.00 %2.40 °C0.52
06:15:003.10 °C1013.40 hPa95.00 %2.40 °C0.52
06:00:003.10 °C1013.50 hPa95.00 %2.40 °C0.52
05:45:003.20 °C1013.40 hPa95.00 %2.50 °C0.52
05:30:003.30 °C1013.30 hPa95.00 %2.60 °C0.52
05:15:003.30 °C1013.30 hPa94.00 %2.40 °C0.52
05:00:003.40 °C1013.20 hPa94.00 %2.50 °C0.52
04:45:003.40 °C1013.20 hPa94.00 %2.50 °C0.52
04:30:003.40 °C1013.20 hPa94.00 %2.50 °C0.52
04:15:003.50 °C1013.20 hPa94.00 %2.60 °C0.52
04:00:003.50 °C1013.20 hPa94.00 %2.60 °C0.52
03:45:003.60 °C1013.20 hPa94.00 %2.70 °C0.52
03:30:003.70 °C1013.30 hPa94.00 %2.80 °C0.52
03:15:003.80 °C1013.30 hPa94.00 %2.90 °C 
03:00:003.80 °C1013.30 hPa94.00 %2.90 °C 
02:45:003.80 °C1013.20 hPa94.00 %2.90 °C 
02:30:003.80 °C1013.20 hPa94.00 %2.90 °C 
02:15:003.80 °C1013.30 hPa94.00 %2.90 °C 
02:00:003.90 °C1013.30 hPa93.00 %2.90 °C 
01:45:003.90 °C1013.30 hPa93.00 %2.90 °C 
01:30:003.80 °C1013.30 hPa93.00 %2.80 °C 
01:15:003.90 °C1013.30 hPa93.00 %2.90 °C 
01:00:003.80 °C1013.50 hPa93.00 %2.80 °C 
00:45:003.80 °C1013.50 hPa93.00 %2.80 °C 
00:30:003.80 °C1013.50 hPa93.00 %2.80 °C 
00:15:003.80 °C1013.50 hPa93.00 %2.80 °C 
00:00:003.80 °C1013.60 hPa93.00 %2.80 °C 

Permanenter Link zu dieser Seite: Wetter im Erzgebirge am 12.10.2016
Performance-Info: Die Erstellung der Seite / Statistik(en) / Tabelle(n) erforderte 5 Datenbankserver-Abfrage(n) und dauerte 97 Millisekunden. (Dieser Messwert ist von der Gesamt-Auslastung des Servers abhängig.)
Erzgebirge - Wetter | Erzgebirge - Wetter (Mobilgeräte) | Komplette Klimadatenbank